< Typhoon 198918 1989 Season Typhoon 198920 >
Typhoon 198919 (SARAH)
General InformationTrack Information on Google MapsDetailed Wind InformationList of All Images || Disaster Info.ResourceGoogle EarthGE AnimationAtom FeedGeoJSON
Detalied Best Track (Time Zone = UTC)
Year Month Day Hour Lat. Long. Pressure (hPa) Wind (kt) Class Image Chart
1989 9 5 00 20.5 147.0 1004 0 2 Image Chart
1989 9 5 06 20.5 145.5 1002 0 2 Image Chart
1989 9 5 12 20.5 144.2 1000 0 2 Image Chart
1989 9 5 18 20.5 143.0 998 35 3 Image Chart
1989 9 6 00 20.5 141.5 996 35 3 Image Chart
1989 9 6 06 20.5 139.8 994 35 3 Image Chart
1989 9 6 12 20.5 138.2 994 35 3 Image Chart
1989 9 6 18 20.6 137.2 992 40 3 Image Chart
1989 9 7 00 20.1 135.6 990 45 3 Image Chart
1989 9 7 06 20.2 134.4 990 45 3 Image Chart
1989 9 7 12 20.5 133.4 985 50 4 Image Chart
1989 9 7 18 20.8 131.9 980 55 4 Image Chart
1989 9 8 00 21.8 129.5 980 55 4 Image Chart
1989 9 8 06 21.3 126.6 975 60 4 Image Chart
1989 9 8 12 19.5 125.3 975 60 4 Image Chart
1989 9 8 18 18.5 125.0 975 60 4 Image Chart
1989 9 9 00 18.0 125.2 975 60 4 Image Chart
1989 9 9 06 17.9 124.4 970 65 5 Image Chart
1989 9 9 12 17.4 124.4 970 65 5 Image Chart
1989 9 9 18 18.5 124.4 970 65 5 Image Chart
1989 9 10 00 19.5 124.2 965 70 5 Image Chart
1989 9 10 06 20.1 123.8 960 75 5 Image Chart
1989 9 10 12 20.7 123.5 955 75 5 Image Chart
1989 9 10 18 21.2 123.2 955 75 5 Image Chart
1989 9 11 00 21.7 123.1 955 75 5 Image Chart
1989 9 11 06 22.7 122.8 950 80 5 Image Chart
1989 9 11 12 23.4 122.1 950 80 5 Image Chart
1989 9 11 18 23.6 121.1 965 70 5 Image Chart
1989 9 12 00 23.7 121.6 965 70 5 Image Chart
1989 9 12 06 24.3 121.8 975 60 4 Image Chart
1989 9 12 12 25.1 121.9 980 55 4 Image Chart
1989 9 12 18 25.5 121.4 980 55 4 Image Chart
1989 9 13 00 26.0 120.6 985 50 4 Image Chart
1989 9 13 06 26.5 120.6 990 45 3 Image Chart
1989 9 13 12 26.8 120.5 994 40 3 Image Chart
1989 9 13 18 27.0 120.3 998 0 2 Image Chart
1989 9 14 00 27.0 120.0 1004 0 2 Image Chart
Japan Meteorological Agency Best Track Data | Correction Date : 1992-10-21
< Typhoon 198918 1989 Season Typhoon 198920 >

Help